sensor_id;sensor_type;location;lat;lon;timestamp;P1;durP1;ratioP1;P2;durP2;ratioP2
3311;SDS011;1668;49.648;8.570;2022-08-27T00:02:19;9.60;;;8.47;;
3311;SDS011;1668;49.648;8.570;2022-08-27T00:04:46;11.37;;;8.10;;
3311;SDS011;1668;49.648;8.570;2022-08-27T00:07:13;9.40;;;8.30;;
3311;SDS011;1668;49.648;8.570;2022-08-27T00:09:40;10.77;;;9.03;;
3311;SDS011;1668;49.648;8.570;2022-08-27T00:12:07;11.80;;;8.80;;
3311;SDS011;1668;49.648;8.570;2022-08-27T00:14:38;13.83;;;7.97;;
3311;SDS011;1668;49.648;8.570;2022-08-27T00:17:05;10.43;;;7.87;;
3311;SDS011;1668;49.648;8.570;2022-08-27T00:19:33;9.53;;;7.80;;
3311;SDS011;1668;49.648;8.570;2022-08-27T00:22:01;8.80;;;7.30;;
3311;SDS011;1668;49.648;8.570;2022-08-27T00:24:28;10.90;;;7.50;;
3311;SDS011;1668;49.648;8.570;2022-08-27T00:26:55;11.63;;;7.03;;
3311;SDS011;1668;49.648;8.570;2022-08-27T00:29:22;12.87;;;7.83;;
3311;SDS011;1668;49.648;8.570;2022-08-27T00:31:50;10.47;;;6.70;;
3311;SDS011;1668;49.648;8.570;2022-08-27T00:34:17;10.27;;;6.57;;
3311;SDS011;1668;49.648;8.570;2022-08-27T00:36:46;8.83;;;7.20;;
3311;SDS011;1668;49.648;8.570;2022-08-27T00:39:13;10.70;;;6.73;;
3311;SDS011;1668;49.648;8.570;2022-08-27T00:41:40;8.70;;;6.40;;
3311;SDS011;1668;49.648;8.570;2022-08-27T00:44:07;11.13;;;6.57;;
3311;SDS011;1668;49.648;8.570;2022-08-27T00:46:36;9.73;;;6.53;;
3311;SDS011;1668;49.648;8.570;2022-08-27T00:49:05;10.83;;;6.90;;
3311;SDS011;1668;49.648;8.570;2022-08-27T00:51:35;10.90;;;6.30;;
3311;SDS011;1668;49.648;8.570;2022-08-27T00:54:04;10.90;;;6.93;;
3311;SDS011;1668;49.648;8.570;2022-08-27T00:56:33;8.07;;;6.10;;
3311;SDS011;1668;49.648;8.570;2022-08-27T00:59:02;9.90;;;6.07;;
3311;SDS011;1668;49.648;8.570;2022-08-27T01:01:31;9.50;;;6.00;;
3311;SDS011;1668;49.648;8.570;2022-08-27T01:04:19;8.63;;;6.37;;
3311;SDS011;1668;49.648;8.570;2022-08-27T01:06:46;10.33;;;6.83;;
3311;SDS011;1668;49.648;8.570;2022-08-27T01:09:15;12.13;;;6.77;;
3311;SDS011;1668;49.648;8.570;2022-08-27T01:11:42;9.07;;;6.30;;
3311;SDS011;1668;49.648;8.570;2022-08-27T01:14:10;6.50;;;5.73;;
3311;SDS011;1668;49.648;8.570;2022-08-27T01:16:37;9.10;;;6.43;;
3311;SDS011;1668;49.648;8.570;2022-08-27T01:19:08;9.73;;;6.53;;
3311;SDS011;1668;49.648;8.570;2022-08-27T01:21:41;8.83;;;7.30;;
3311;SDS011;1668;49.648;8.570;2022-08-27T01:24:23;11.43;;;6.97;;
3311;SDS011;1668;49.648;8.570;2022-08-27T01:26:55;11.87;;;6.90;;
3311;SDS011;1668;49.648;8.570;2022-08-27T01:29:24;7.87;;;6.90;;
3311;SDS011;1668;49.648;8.570;2022-08-27T01:31:51;8.70;;;7.20;;
3311;SDS011;1668;49.648;8.570;2022-08-27T01:34:18;9.03;;;7.40;;
3311;SDS011;1668;49.648;8.570;2022-08-27T01:36:45;13.57;;;7.30;;
3311;SDS011;1668;49.648;8.570;2022-08-27T01:39:12;11.83;;;7.70;;
3311;SDS011;1668;49.648;8.570;2022-08-27T01:41:40;16.07;;;7.87;;
3311;SDS011;1668;49.648;8.570;2022-08-27T01:44:06;15.37;;;7.50;;
3311;SDS011;1668;49.648;8.570;2022-08-27T01:46:33;10.30;;;7.50;;
3311;SDS011;1668;49.648;8.570;2022-08-27T01:49:00;9.07;;;7.00;;
3311;SDS011;1668;49.648;8.570;2022-08-27T01:51:27;12.33;;;7.33;;
3311;SDS011;1668;49.648;8.570;2022-08-27T01:53:54;10.67;;;7.47;;
3311;SDS011;1668;49.648;8.570;2022-08-27T01:56:20;10.30;;;7.80;;
3311;SDS011;1668;49.648;8.570;2022-08-27T01:58:48;13.13;;;8.63;;
3311;SDS011;1668;49.648;8.570;2022-08-27T02:01:16;13.53;;;9.37;;
3311;SDS011;1668;49.648;8.570;2022-08-27T02:03:43;11.03;;;9.33;;
3311;SDS011;1668;49.648;8.570;2022-08-27T02:06:12;14.30;;;9.87;;
3311;SDS011;1668;49.648;8.570;2022-08-27T02:08:40;13.27;;;9.17;;
3311;SDS011;1668;49.648;8.570;2022-08-27T02:11:07;14.03;;;9.63;;
3311;SDS011;1668;49.648;8.570;2022-08-27T02:13:34;12.90;;;9.80;;
3311;SDS011;1668;49.648;8.570;2022-08-27T02:16:02;11.23;;;9.10;;
3311;SDS011;1668;49.648;8.570;2022-08-27T02:18:29;13.30;;;9.57;;
3311;SDS011;1668;49.648;8.570;2022-08-27T02:20:56;11.83;;;9.30;;
3311;SDS011;1668;49.648;8.570;2022-08-27T02:23:23;11.57;;;9.07;;
3311;SDS011;1668;49.648;8.570;2022-08-27T02:25:50;12.47;;;9.30;;
3311;SDS011;1668;49.648;8.570;2022-08-27T02:28:17;11.90;;;9.40;;
3311;SDS011;1668;49.648;8.570;2022-08-27T02:30:44;10.60;;;8.63;;
3311;SDS011;1668;49.648;8.570;2022-08-27T02:33:12;15.30;;;8.23;;
3311;SDS011;1668;49.648;8.570;2022-08-27T02:35:39;10.13;;;9.10;;
3311;SDS011;1668;49.648;8.570;2022-08-27T02:38:08;12.57;;;8.63;;
3311;SDS011;1668;49.648;8.570;2022-08-27T02:40:36;9.33;;;7.80;;
3311;SDS011;1668;49.648;8.570;2022-08-27T02:43:04;11.87;;;9.63;;
3311;SDS011;1668;49.648;8.570;2022-08-27T02:45:31;10.37;;;8.70;;
3311;SDS011;1668;49.648;8.570;2022-08-27T02:47:59;10.23;;;9.13;;
3311;SDS011;1668;49.648;8.570;2022-08-27T02:50:27;11.50;;;8.80;;
3311;SDS011;1668;49.648;8.570;2022-08-27T02:52:54;13.50;;;7.60;;
3311;SDS011;1668;49.648;8.570;2022-08-27T02:55:21;12.30;;;7.53;;
3311;SDS011;1668;49.648;8.570;2022-08-27T02:57:48;9.67;;;7.70;;
3311;SDS011;1668;49.648;8.570;2022-08-27T03:00:16;9.87;;;8.20;;
3311;SDS011;1668;49.648;8.570;2022-08-27T03:02:45;13.23;;;7.90;;
3311;SDS011;1668;49.648;8.570;2022-08-27T03:05:12;11.10;;;8.17;;
3311;SDS011;1668;49.648;8.570;2022-08-27T03:07:41;12.40;;;8.93;;
3311;SDS011;1668;49.648;8.570;2022-08-27T03:10:09;14.73;;;9.60;;
3311;SDS011;1668;49.648;8.570;2022-08-27T03:12:37;11.50;;;8.90;;
3311;SDS011;1668;49.648;8.570;2022-08-27T03:15:05;11.43;;;8.33;;
3311;SDS011;1668;49.648;8.570;2022-08-27T03:17:34;11.90;;;8.00;;
3311;SDS011;1668;49.648;8.570;2022-08-27T03:20:19;11.10;;;8.67;;
3311;SDS011;1668;49.648;8.570;2022-08-27T03:22:48;10.03;;;7.23;;
3311;SDS011;1668;49.648;8.570;2022-08-27T03:25:14;12.37;;;8.17;;
3311;SDS011;1668;49.648;8.570;2022-08-27T03:27:41;10.47;;;7.37;;
3311;SDS011;1668;49.648;8.570;2022-08-27T03:30:09;11.57;;;8.40;;
3311;SDS011;1668;49.648;8.570;2022-08-27T03:32:40;11.87;;;7.33;;
3311;SDS011;1668;49.648;8.570;2022-08-27T03:35:07;10.80;;;7.40;;
3311;SDS011;1668;49.648;8.570;2022-08-27T03:37:35;11.33;;;7.77;;
3311;SDS011;1668;49.648;8.570;2022-08-27T03:40:04;10.37;;;7.40;;
3311;SDS011;1668;49.648;8.570;2022-08-27T03:42:33;12.47;;;7.37;;
3311;SDS011;1668;49.648;8.570;2022-08-27T03:45:00;11.50;;;6.70;;
3311;SDS011;1668;49.648;8.570;2022-08-27T03:47:28;11.30;;;7.40;;
3311;SDS011;1668;49.648;8.570;2022-08-27T03:49:56;7.90;;;6.53;;
3311;SDS011;1668;49.648;8.570;2022-08-27T03:52:24;9.40;;;6.70;;
3311;SDS011;1668;49.648;8.570;2022-08-27T03:54:51;8.53;;;7.07;;
3311;SDS011;1668;49.648;8.570;2022-08-27T03:57:19;8.40;;;6.60;;
3311;SDS011;1668;49.648;8.570;2022-08-27T03:59:46;10.50;;;7.07;;
3311;SDS011;1668;49.648;8.570;2022-08-27T04:02:13;11.67;;;7.57;;
3311;SDS011;1668;49.648;8.570;2022-08-27T04:04:40;10.20;;;7.27;;
3311;SDS011;1668;49.648;8.570;2022-08-27T04:07:07;9.20;;;6.43;;
3311;SDS011;1668;49.648;8.570;2022-08-27T04:09:35;11.57;;;6.83;;
3311;SDS011;1668;49.648;8.570;2022-08-27T04:12:02;8.50;;;6.23;;
3311;SDS011;1668;49.648;8.570;2022-08-27T04:14:30;8.63;;;6.53;;
3311;SDS011;1668;49.648;8.570;2022-08-27T04:16:57;9.83;;;6.20;;
3311;SDS011;1668;49.648;8.570;2022-08-27T04:19:25;8.80;;;6.23;;
3311;SDS011;1668;49.648;8.570;2022-08-27T04:21:57;9.67;;;6.57;;
3311;SDS011;1668;49.648;8.570;2022-08-27T04:24:25;11.17;;;6.97;;
3311;SDS011;1668;49.648;8.570;2022-08-27T04:26:52;14.03;;;6.80;;
3311;SDS011;1668;49.648;8.570;2022-08-27T04:29:19;12.13;;;7.10;;
3311;SDS011;1668;49.648;8.570;2022-08-27T04:31:47;11.63;;;7.00;;
3311;SDS011;1668;49.648;8.570;2022-08-27T04:34:15;8.10;;;6.37;;
3311;SDS011;1668;49.648;8.570;2022-08-27T04:36:42;10.83;;;7.40;;
3311;SDS011;1668;49.648;8.570;2022-08-27T04:39:10;11.90;;;7.10;;
3311;SDS011;1668;49.648;8.570;2022-08-27T04:41:37;13.20;;;6.97;;
3311;SDS011;1668;49.648;8.570;2022-08-27T04:44:04;10.23;;;6.27;;
3311;SDS011;1668;49.648;8.570;2022-08-27T04:46:34;11.30;;;6.60;;
3311;SDS011;1668;49.648;8.570;2022-08-27T04:49:05;9.10;;;6.47;;
3311;SDS011;1668;49.648;8.570;2022-08-27T04:51:33;9.67;;;6.53;;
3311;SDS011;1668;49.648;8.570;2022-08-27T04:54:00;10.30;;;6.80;;
3311;SDS011;1668;49.648;8.570;2022-08-27T04:56:28;11.33;;;7.00;;
3311;SDS011;1668;49.648;8.570;2022-08-27T04:58:55;11.20;;;6.97;;
3311;SDS011;1668;49.648;8.570;2022-08-27T05:01:23;10.23;;;7.77;;
3311;SDS011;1668;49.648;8.570;2022-08-27T05:03:51;11.53;;;6.90;;
3311;SDS011;1668;49.648;8.570;2022-08-27T05:06:20;8.80;;;7.10;;
3311;SDS011;1668;49.648;8.570;2022-08-27T05:08:48;10.27;;;6.60;;
3311;SDS011;1668;49.648;8.570;2022-08-27T05:11:16;12.00;;;7.63;;
3311;SDS011;1668;49.648;8.570;2022-08-27T05:13:45;11.80;;;7.10;;
3311;SDS011;1668;49.648;8.570;2022-08-27T05:16:14;13.23;;;6.80;;
3311;SDS011;1668;49.648;8.570;2022-08-27T05:18:42;11.10;;;7.50;;
3311;SDS011;1668;49.648;8.570;2022-08-27T05:21:14;10.83;;;7.23;;
3311;SDS011;1668;49.648;8.570;2022-08-27T05:23:44;13.37;;;7.77;;
3311;SDS011;1668;49.648;8.570;2022-08-27T05:26:11;10.07;;;7.33;;
3311;SDS011;1668;49.648;8.570;2022-08-27T05:28:38;9.67;;;6.50;;
3311;SDS011;1668;49.648;8.570;2022-08-27T05:31:06;11.63;;;7.23;;
3311;SDS011;1668;49.648;8.570;2022-08-27T05:33:34;13.63;;;7.50;;
3311;SDS011;1668;49.648;8.570;2022-08-27T05:36:02;12.10;;;6.90;;
3311;SDS011;1668;49.648;8.570;2022-08-27T05:38:30;10.27;;;8.37;;
3311;SDS011;1668;49.648;8.570;2022-08-27T05:41:04;11.63;;;7.40;;
3311;SDS011;1668;49.648;8.570;2022-08-27T05:43:33;13.73;;;8.00;;
3311;SDS011;1668;49.648;8.570;2022-08-27T05:46:02;12.60;;;7.90;;
3311;SDS011;1668;49.648;8.570;2022-08-27T05:48:30;13.50;;;8.30;;
3311;SDS011;1668;49.648;8.570;2022-08-27T05:51:05;10.50;;;8.00;;
3311;SDS011;1668;49.648;8.570;2022-08-27T05:53:33;9.90;;;7.27;;
3311;SDS011;1668;49.648;8.570;2022-08-27T05:56:00;11.13;;;6.70;;
3311;SDS011;1668;49.648;8.570;2022-08-27T05:58:29;15.83;;;7.97;;
3311;SDS011;1668;49.648;8.570;2022-08-27T06:01:13;9.77;;;7.83;;
3311;SDS011;1668;49.648;8.570;2022-08-27T06:03:42;11.67;;;6.60;;
3311;SDS011;1668;49.648;8.570;2022-08-27T06:06:10;12.47;;;8.03;;
3311;SDS011;1668;49.648;8.570;2022-08-27T06:08:37;12.93;;;8.03;;
3311;SDS011;1668;49.648;8.570;2022-08-27T06:11:06;9.80;;;8.17;;
3311;SDS011;1668;49.648;8.570;2022-08-27T06:13:33;9.80;;;7.97;;
3311;SDS011;1668;49.648;8.570;2022-08-27T06:16:01;12.47;;;7.83;;
3311;SDS011;1668;49.648;8.570;2022-08-27T06:18:28;10.33;;;7.50;;
3311;SDS011;1668;49.648;8.570;2022-08-27T06:20:54;11.43;;;7.57;;
3311;SDS011;1668;49.648;8.570;2022-08-27T06:23:21;12.57;;;7.07;;
3311;SDS011;1668;49.648;8.570;2022-08-27T06:25:49;17.73;;;7.30;;
3311;SDS011;1668;49.648;8.570;2022-08-27T06:28:17;9.57;;;7.40;;
3311;SDS011;1668;49.648;8.570;2022-08-27T06:30:45;16.27;;;7.87;;
3311;SDS011;1668;49.648;8.570;2022-08-27T06:33:12;14.20;;;8.53;;
3311;SDS011;1668;49.648;8.570;2022-08-27T06:35:39;12.90;;;8.17;;
3311;SDS011;1668;49.648;8.570;2022-08-27T06:38:06;14.83;;;7.90;;
3311;SDS011;1668;49.648;8.570;2022-08-27T06:40:33;11.90;;;7.60;;
3311;SDS011;1668;49.648;8.570;2022-08-27T06:43:00;14.53;;;7.30;;
3311;SDS011;1668;49.648;8.570;2022-08-27T06:45:28;15.83;;;8.70;;
3311;SDS011;1668;49.648;8.570;2022-08-27T06:47:55;11.93;;;7.73;;
3311;SDS011;1668;49.648;8.570;2022-08-27T06:50:22;13.80;;;7.80;;
3311;SDS011;1668;49.648;8.570;2022-08-27T06:52:48;10.50;;;7.67;;
3311;SDS011;1668;49.648;8.570;2022-08-27T06:55:15;12.53;;;7.93;;
3311;SDS011;1668;49.648;8.570;2022-08-27T06:57:42;10.33;;;8.10;;
3311;SDS011;1668;49.648;8.570;2022-08-27T07:00:09;8.90;;;7.50;;
3311;SDS011;1668;49.648;8.570;2022-08-27T07:02:38;12.57;;;7.23;;
3311;SDS011;1668;49.648;8.570;2022-08-27T07:05:06;10.20;;;7.20;;
3311;SDS011;1668;49.648;8.570;2022-08-27T07:07:33;12.70;;;7.67;;
3311;SDS011;1668;49.648;8.570;2022-08-27T07:10:00;12.57;;;7.63;;
3311;SDS011;1668;49.648;8.570;2022-08-27T07:12:27;12.17;;;7.70;;
3311;SDS011;1668;49.648;8.570;2022-08-27T07:14:54;8.43;;;7.00;;
3311;SDS011;1668;49.648;8.570;2022-08-27T07:17:20;9.20;;;7.30;;
3311;SDS011;1668;49.648;8.570;2022-08-27T07:19:48;9.97;;;7.20;;
3311;SDS011;1668;49.648;8.570;2022-08-27T07:22:15;12.13;;;7.97;;
3311;SDS011;1668;49.648;8.570;2022-08-27T07:24:42;14.53;;;7.40;;
3311;SDS011;1668;49.648;8.570;2022-08-27T07:27:09;10.67;;;8.07;;
3311;SDS011;1668;49.648;8.570;2022-08-27T07:29:36;8.10;;;6.63;;
3311;SDS011;1668;49.648;8.570;2022-08-27T07:32:03;14.50;;;8.03;;
3311;SDS011;1668;49.648;8.570;2022-08-27T07:34:30;13.93;;;8.00;;
3311;SDS011;1668;49.648;8.570;2022-08-27T07:36:58;22.80;;;7.47;;
3311;SDS011;1668;49.648;8.570;2022-08-27T07:39:25;12.60;;;7.63;;
3311;SDS011;1668;49.648;8.570;2022-08-27T07:41:54;10.47;;;7.70;;
3311;SDS011;1668;49.648;8.570;2022-08-27T07:44:39;10.13;;;7.07;;
3311;SDS011;1668;49.648;8.570;2022-08-27T07:47:06;11.70;;;7.83;;
3311;SDS011;1668;49.648;8.570;2022-08-27T07:49:33;11.63;;;6.70;;
3311;SDS011;1668;49.648;8.570;2022-08-27T07:52:01;10.40;;;7.10;;
3311;SDS011;1668;49.648;8.570;2022-08-27T07:54:30;13.53;;;7.00;;
3311;SDS011;1668;49.648;8.570;2022-08-27T07:56:57;13.60;;;8.70;;
3311;SDS011;1668;49.648;8.570;2022-08-27T07:59:24;14.80;;;7.57;;
3311;SDS011;1668;49.648;8.570;2022-08-27T08:01:51;10.93;;;7.23;;
3311;SDS011;1668;49.648;8.570;2022-08-27T08:04:18;9.37;;;7.00;;
3311;SDS011;1668;49.648;8.570;2022-08-27T08:06:46;11.53;;;7.53;;
3311;SDS011;1668;49.648;8.570;2022-08-27T08:09:15;11.57;;;7.70;;
3311;SDS011;1668;49.648;8.570;2022-08-27T08:11:42;9.10;;;7.53;;
3311;SDS011;1668;49.648;8.570;2022-08-27T08:14:09;10.80;;;7.37;;
3311;SDS011;1668;49.648;8.570;2022-08-27T08:16:36;12.10;;;7.43;;
3311;SDS011;1668;49.648;8.570;2022-08-27T08:19:03;10.83;;;6.90;;
3311;SDS011;1668;49.648;8.570;2022-08-27T08:21:30;10.87;;;6.97;;
3311;SDS011;1668;49.648;8.570;2022-08-27T08:23:57;25.67;;;7.80;;
3311;SDS011;1668;49.648;8.570;2022-08-27T08:26:25;11.47;;;6.93;;
3311;SDS011;1668;49.648;8.570;2022-08-27T08:28:52;10.63;;;7.23;;
3311;SDS011;1668;49.648;8.570;2022-08-27T08:31:19;10.80;;;6.93;;
3311;SDS011;1668;49.648;8.570;2022-08-27T08:33:48;14.70;;;7.90;;
3311;SDS011;1668;49.648;8.570;2022-08-27T08:36:15;7.90;;;7.07;;
3311;SDS011;1668;49.648;8.570;2022-08-27T08:38:43;10.93;;;7.70;;
3311;SDS011;1668;49.648;8.570;2022-08-27T08:41:19;11.93;;;7.60;;
3311;SDS011;1668;49.648;8.570;2022-08-27T08:44:07;11.83;;;6.90;;
3311;SDS011;1668;49.648;8.570;2022-08-27T08:46:44;12.27;;;6.87;;
3311;SDS011;1668;49.648;8.570;2022-08-27T08:49:16;9.77;;;6.90;;
3311;SDS011;1668;49.648;8.570;2022-08-27T08:52:00;9.20;;;7.10;;
3311;SDS011;1668;49.648;8.570;2022-08-27T08:54:33;13.30;;;7.90;;
3311;SDS011;1668;49.648;8.570;2022-08-27T08:57:02;11.90;;;7.40;;
3311;SDS011;1668;49.648;8.570;2022-08-27T08:59:34;13.53;;;7.97;;
3311;SDS011;1668;49.648;8.570;2022-08-27T09:02:03;10.50;;;6.93;;
3311;SDS011;1668;49.648;8.570;2022-08-27T09:04:31;14.63;;;6.67;;
3311;SDS011;1668;49.648;8.570;2022-08-27T09:06:59;8.63;;;6.20;;
3311;SDS011;1668;49.648;8.570;2022-08-27T09:09:33;10.57;;;6.70;;
3311;SDS011;1668;49.648;8.570;2022-08-27T09:12:10;12.40;;;7.20;;
3311;SDS011;1668;49.648;8.570;2022-08-27T09:14:45;11.80;;;7.17;;
3311;SDS011;1668;49.648;8.570;2022-08-27T09:17:16;9.63;;;6.90;;
3311;SDS011;1668;49.648;8.570;2022-08-27T09:19:44;9.70;;;6.60;;
3311;SDS011;1668;49.648;8.570;2022-08-27T09:22:14;11.63;;;7.03;;
3311;SDS011;1668;49.648;8.570;2022-08-27T09:24:50;8.50;;;6.80;;
3311;SDS011;1668;49.648;8.570;2022-08-27T09:27:25;10.63;;;7.00;;
3311;SDS011;1668;49.648;8.570;2022-08-27T09:29:54;8.93;;;6.70;;
3311;SDS011;1668;49.648;8.570;2022-08-27T09:32:22;13.43;;;7.37;;
3311;SDS011;1668;49.648;8.570;2022-08-27T09:34:50;11.30;;;7.20;;
3311;SDS011;1668;49.648;8.570;2022-08-27T09:37:18;8.50;;;6.77;;
3311;SDS011;1668;49.648;8.570;2022-08-27T09:39:49;7.57;;;6.60;;
3311;SDS011;1668;49.648;8.570;2022-08-27T09:42:28;9.73;;;7.30;;
3311;SDS011;1668;49.648;8.570;2022-08-27T09:45:05;14.10;;;8.17;;
3311;SDS011;1668;49.648;8.570;2022-08-27T09:47:40;10.17;;;7.20;;
3311;SDS011;1668;49.648;8.570;2022-08-27T09:50:08;8.27;;;6.50;;
3311;SDS011;1668;49.648;8.570;2022-08-27T09:52:36;11.97;;;7.83;;
3311;SDS011;1668;49.648;8.570;2022-08-27T09:55:13;11.77;;;6.90;;
3311;SDS011;1668;49.648;8.570;2022-08-27T09:57:52;11.20;;;6.93;;
3311;SDS011;1668;49.648;8.570;2022-08-27T10:00:24;10.70;;;6.57;;
3311;SDS011;1668;49.648;8.570;2022-08-27T10:02:58;12.00;;;7.17;;
3311;SDS011;1668;49.648;8.570;2022-08-27T10:05:27;12.67;;;7.17;;
3311;SDS011;1668;49.648;8.570;2022-08-27T10:07:57;9.70;;;7.20;;
3311;SDS011;1668;49.648;8.570;2022-08-27T10:10:32;8.60;;;6.53;;
3311;SDS011;1668;49.648;8.570;2022-08-27T10:13:08;9.37;;;6.80;;
3311;SDS011;1668;49.648;8.570;2022-08-27T10:15:44;14.47;;;6.70;;
3311;SDS011;1668;49.648;8.570;2022-08-27T10:18:18;10.67;;;6.50;;
3311;SDS011;1668;49.648;8.570;2022-08-27T10:20:57;12.53;;;6.37;;
3311;SDS011;1668;49.648;8.570;2022-08-27T10:23:33;9.27;;;6.63;;
3311;SDS011;1668;49.648;8.570;2022-08-27T10:26:08;10.10;;;6.80;;
3311;SDS011;1668;49.648;8.570;2022-08-27T10:28:43;10.20;;;7.10;;
3311;SDS011;1668;49.648;8.570;2022-08-27T10:31:31;9.30;;;6.33;;
3311;SDS011;1668;49.648;8.570;2022-08-27T10:34:11;9.83;;;6.27;;
3311;SDS011;1668;49.648;8.570;2022-08-27T10:36:53;7.83;;;6.10;;
3311;SDS011;1668;49.648;8.570;2022-08-27T10:39:32;10.43;;;7.20;;
3311;SDS011;1668;49.648;8.570;2022-08-27T10:42:14;7.80;;;6.00;;
3311;SDS011;1668;49.648;8.570;2022-08-27T10:44:51;11.80;;;6.20;;
3311;SDS011;1668;49.648;8.570;2022-08-27T10:47:30;8.60;;;6.20;;
3311;SDS011;1668;49.648;8.570;2022-08-27T10:50:12;7.23;;;6.10;;
3311;SDS011;1668;49.648;8.570;2022-08-27T10:52:46;6.37;;;5.70;;
3311;SDS011;1668;49.648;8.570;2022-08-27T10:55:17;14.03;;;6.87;;
3311;SDS011;1668;49.648;8.570;2022-08-27T10:57:57;9.93;;;6.60;;
3311;SDS011;1668;49.648;8.570;2022-08-27T11:00:33;6.97;;;5.90;;
3311;SDS011;1668;49.648;8.570;2022-08-27T11:03:08;8.00;;;6.07;;
3311;SDS011;1668;49.648;8.570;2022-08-27T11:05:38;7.10;;;6.13;;
3311;SDS011;1668;49.648;8.570;2022-08-27T11:08:10;9.40;;;6.13;;
3311;SDS011;1668;49.648;8.570;2022-08-27T11:10:43;9.77;;;6.27;;
3311;SDS011;1668;49.648;8.570;2022-08-27T11:13:14;12.33;;;6.83;;
3311;SDS011;1668;49.648;8.570;2022-08-27T11:15:48;16.03;;;6.40;;
3311;SDS011;1668;49.648;8.570;2022-08-27T11:18:21;9.40;;;6.20;;
3311;SDS011;1668;49.648;8.570;2022-08-27T11:20:55;9.87;;;6.57;;
3311;SDS011;1668;49.648;8.570;2022-08-27T11:23:26;8.13;;;6.17;;
3311;SDS011;1668;49.648;8.570;2022-08-27T11:25:58;8.30;;;6.27;;
3311;SDS011;1668;49.648;8.570;2022-08-27T11:28:28;9.13;;;5.50;;
3311;SDS011;1668;49.648;8.570;2022-08-27T11:31:05;12.07;;;6.67;;
3311;SDS011;1668;49.648;8.570;2022-08-27T11:33:39;6.70;;;5.73;;
3311;SDS011;1668;49.648;8.570;2022-08-27T11:39:13;9.70;;;6.10;;
3311;SDS011;1668;49.648;8.570;2022-08-27T11:42:00;9.80;;;6.57;;
3311;SDS011;1668;49.648;8.570;2022-08-27T11:44:32;6.70;;;5.80;;
3311;SDS011;1668;49.648;8.570;2022-08-27T11:47:08;9.77;;;6.50;;
3311;SDS011;1668;49.648;8.570;2022-08-27T11:49:42;11.63;;;5.93;;
3311;SDS011;1668;49.648;8.570;2022-08-27T11:52:11;8.47;;;6.40;;
3311;SDS011;1668;49.648;8.570;2022-08-27T11:54:47;9.30;;;6.20;;
3311;SDS011;1668;49.648;8.570;2022-08-27T11:57:25;33.20;;;6.63;;
3311;SDS011;1668;49.648;8.570;2022-08-27T11:59:54;9.03;;;6.57;;
3311;SDS011;1668;49.648;8.570;2022-08-27T12:02:23;14.30;;;6.57;;
3311;SDS011;1668;49.648;8.570;2022-08-27T12:04:51;8.33;;;5.70;;
3311;SDS011;1668;49.648;8.570;2022-08-27T12:07:28;9.57;;;6.57;;
3311;SDS011;1668;49.648;8.570;2022-08-27T12:10:04;9.50;;;6.00;;
3311;SDS011;1668;49.648;8.570;2022-08-27T12:12:47;7.73;;;6.10;;
3311;SDS011;1668;49.648;8.570;2022-08-27T12:15:24;10.20;;;6.50;;
3311;SDS011;1668;49.648;8.570;2022-08-27T12:18:05;8.20;;;6.33;;
3311;SDS011;1668;49.648;8.570;2022-08-27T12:20:50;7.20;;;6.33;;
3311;SDS011;1668;49.648;8.570;2022-08-27T12:23:23;8.40;;;6.00;;
3311;SDS011;1668;49.648;8.570;2022-08-27T12:26:16;8.93;;;6.10;;
3311;SDS011;1668;49.648;8.570;2022-08-27T12:28:51;10.13;;;6.27;;
3311;SDS011;1668;49.648;8.570;2022-08-27T12:31:42;10.80;;;5.83;;
3311;SDS011;1668;49.648;8.570;2022-08-27T12:34:14;8.63;;;6.00;;
3311;SDS011;1668;49.648;8.570;2022-08-27T12:36:41;8.03;;;6.00;;
3311;SDS011;1668;49.648;8.570;2022-08-27T12:39:13;7.77;;;6.20;;
3311;SDS011;1668;49.648;8.570;2022-08-27T12:41:43;8.00;;;5.53;;
3311;SDS011;1668;49.648;8.570;2022-08-27T12:44:12;7.10;;;6.40;;
3311;SDS011;1668;49.648;8.570;2022-08-27T12:46:50;6.53;;;5.93;;
3311;SDS011;1668;49.648;8.570;2022-08-27T12:49:20;7.00;;;5.73;;
3311;SDS011;1668;49.648;8.570;2022-08-27T12:51:51;8.20;;;5.83;;
3311;SDS011;1668;49.648;8.570;2022-08-27T12:54:23;7.80;;;5.87;;
3311;SDS011;1668;49.648;8.570;2022-08-27T12:57:01;8.83;;;6.00;;
3311;SDS011;1668;49.648;8.570;2022-08-27T13:05:44;7.77;;;5.70;;
3311;SDS011;1668;49.648;8.570;2022-08-27T13:08:16;7.00;;;5.80;;
3311;SDS011;1668;49.648;8.570;2022-08-27T13:10:45;8.03;;;5.70;;
3311;SDS011;1668;49.648;8.570;2022-08-27T13:13:14;6.77;;;5.27;;
3311;SDS011;1668;49.648;8.570;2022-08-27T13:15:44;9.37;;;5.93;;
3311;SDS011;1668;49.648;8.570;2022-08-27T13:18:13;7.47;;;5.60;;
3311;SDS011;1668;49.648;8.570;2022-08-27T13:20:42;6.30;;;5.27;;
3311;SDS011;1668;49.648;8.570;2022-08-27T13:23:13;7.67;;;5.20;;
3311;SDS011;1668;49.648;8.570;2022-08-27T13:25:51;7.03;;;5.20;;
3311;SDS011;1668;49.648;8.570;2022-08-27T13:28:20;8.10;;;5.40;;
3311;SDS011;1668;49.648;8.570;2022-08-27T13:30:50;6.40;;;5.23;;
3311;SDS011;1668;49.648;8.570;2022-08-27T13:33:20;9.33;;;5.90;;
3311;SDS011;1668;49.648;8.570;2022-08-27T13:35:49;8.60;;;5.43;;
3311;SDS011;1668;49.648;8.570;2022-08-27T13:38:17;8.40;;;5.40;;
3311;SDS011;1668;49.648;8.570;2022-08-27T13:40:52;5.97;;;5.37;;
3311;SDS011;1668;49.648;8.570;2022-08-27T13:43:24;7.40;;;5.30;;
3311;SDS011;1668;49.648;8.570;2022-08-27T13:45:58;7.70;;;6.00;;
3311;SDS011;1668;49.648;8.570;2022-08-27T13:48:26;10.63;;;6.00;;
3311;SDS011;1668;49.648;8.570;2022-08-27T13:50:55;7.57;;;5.47;;
3311;SDS011;1668;49.648;8.570;2022-08-27T13:53:24;6.67;;;4.53;;
3311;SDS011;1668;49.648;8.570;2022-08-27T13:56:21;7.90;;;5.00;;
3311;SDS011;1668;49.648;8.570;2022-08-27T13:58:49;7.13;;;5.80;;
3311;SDS011;1668;49.648;8.570;2022-08-27T14:01:23;6.67;;;5.57;;
3311;SDS011;1668;49.648;8.570;2022-08-27T14:03:55;7.20;;;5.70;;
3311;SDS011;1668;49.648;8.570;2022-08-27T14:06:27;7.87;;;5.80;;
3311;SDS011;1668;49.648;8.570;2022-08-27T14:08:57;7.33;;;5.77;;
3311;SDS011;1668;49.648;8.570;2022-08-27T14:11:34;7.60;;;4.83;;
3311;SDS011;1668;49.648;8.570;2022-08-27T14:14:02;6.47;;;5.50;;
3311;SDS011;1668;49.648;8.570;2022-08-27T14:16:30;9.57;;;5.60;;
3311;SDS011;1668;49.648;8.570;2022-08-27T14:19:02;6.37;;;5.37;;
3311;SDS011;1668;49.648;8.570;2022-08-27T14:21:33;6.63;;;5.60;;
3311;SDS011;1668;49.648;8.570;2022-08-27T14:24:01;8.23;;;6.00;;
3311;SDS011;1668;49.648;8.570;2022-08-27T14:26:29;6.00;;;5.00;;
3311;SDS011;1668;49.648;8.570;2022-08-27T14:28:56;8.33;;;5.37;;
3311;SDS011;1668;49.648;8.570;2022-08-27T14:31:23;7.97;;;5.13;;
3311;SDS011;1668;49.648;8.570;2022-08-27T14:33:50;9.77;;;5.77;;
3311;SDS011;1668;49.648;8.570;2022-08-27T14:36:19;8.83;;;5.50;;
3311;SDS011;1668;49.648;8.570;2022-08-27T14:38:48;7.47;;;5.40;;
3311;SDS011;1668;49.648;8.570;2022-08-27T14:41:16;6.03;;;5.07;;
3311;SDS011;1668;49.648;8.570;2022-08-27T14:43:44;6.03;;;5.37;;
3311;SDS011;1668;49.648;8.570;2022-08-27T14:46:14;6.60;;;5.63;;
3311;SDS011;1668;49.648;8.570;2022-08-27T14:48:47;6.37;;;5.40;;
3311;SDS011;1668;49.648;8.570;2022-08-27T14:51:15;6.07;;;5.30;;
3311;SDS011;1668;49.648;8.570;2022-08-27T14:53:50;6.50;;;5.33;;
3311;SDS011;1668;49.648;8.570;2022-08-27T14:56:17;6.30;;;5.03;;
3311;SDS011;1668;49.648;8.570;2022-08-27T14:58:44;10.77;;;5.20;;
3311;SDS011;1668;49.648;8.570;2022-08-27T15:01:12;7.27;;;5.77;;
3311;SDS011;1668;49.648;8.570;2022-08-27T15:03:43;9.30;;;5.47;;
3311;SDS011;1668;49.648;8.570;2022-08-27T15:06:12;6.77;;;5.87;;
3311;SDS011;1668;49.648;8.570;2022-08-27T15:08:40;7.83;;;5.27;;
3311;SDS011;1668;49.648;8.570;2022-08-27T15:11:08;6.53;;;5.00;;
3311;SDS011;1668;49.648;8.570;2022-08-27T15:13:40;7.37;;;5.83;;
3311;SDS011;1668;49.648;8.570;2022-08-27T15:16:07;10.60;;;5.27;;
3311;SDS011;1668;49.648;8.570;2022-08-27T15:18:34;6.57;;;5.23;;
3311;SDS011;1668;49.648;8.570;2022-08-27T15:21:01;6.47;;;5.20;;
3311;SDS011;1668;49.648;8.570;2022-08-27T15:23:28;5.90;;;4.80;;
3311;SDS011;1668;49.648;8.570;2022-08-27T15:25:55;7.30;;;6.07;;
3311;SDS011;1668;49.648;8.570;2022-08-27T15:28:23;7.03;;;5.20;;
3311;SDS011;1668;49.648;8.570;2022-08-27T15:30:50;6.00;;;5.00;;
3311;SDS011;1668;49.648;8.570;2022-08-27T15:33:17;7.17;;;4.87;;
3311;SDS011;1668;49.648;8.570;2022-08-27T15:35:45;6.60;;;4.80;;